createdAt,value
2023-03-26T00:38:49.431Z,23.57
2023-03-26T00:42:49.417Z,23.54
2023-03-26T00:46:49.381Z,23.56
2023-03-26T00:50:49.311Z,23.57
2023-03-26T00:54:49.542Z,23.54
2023-03-26T00:58:49.772Z,23.53
2023-03-26T01:02:49.888Z,23.50
2023-03-26T01:06:49.870Z,23.46
2023-03-26T01:10:49.829Z,23.47
2023-03-26T01:14:51.093Z,23.43
2023-03-26T01:18:49.788Z,23.41
2023-03-26T01:22:49.790Z,23.41
2023-03-26T01:26:49.805Z,23.37
2023-03-26T01:30:49.941Z,23.33
2023-03-26T01:34:49.876Z,23.32
2023-03-26T01:38:49.831Z,23.30
2023-03-26T01:42:49.824Z,23.33
2023-03-26T01:46:49.906Z,23.29
2023-03-26T01:50:49.829Z,23.29
2023-03-26T01:54:49.834Z,23.29
2023-03-26T01:58:49.849Z,23.26
2023-03-26T02:02:49.920Z,23.26
2023-03-26T02:06:49.885Z,23.23
2023-03-26T02:10:49.948Z,23.20
2023-03-26T02:14:50.008Z,23.16
2023-03-26T05:10:54.351Z,22.52
2023-03-26T05:14:54.377Z,22.59
2023-03-26T05:18:54.337Z,22.54
2023-03-26T05:22:54.291Z,22.52
2023-03-26T05:26:54.265Z,22.52
2023-03-26T05:30:54.463Z,22.48
2023-03-26T05:34:54.154Z,22.48
2023-03-26T05:38:54.167Z,22.41
2023-03-26T05:42:54.119Z,22.45
2023-03-26T05:46:54.057Z,22.51
2023-03-26T05:50:54.191Z,22.55
2023-03-26T05:54:54.003Z,22.55
2023-03-26T05:58:54.192Z,22.54
2023-03-26T06:02:54.263Z,22.52
2023-03-26T06:06:54.119Z,22.51
2023-03-26T06:10:54.308Z,22.51
2023-03-26T06:14:54.041Z,22.51
2023-03-26T06:18:56.745Z,22.49
2023-03-26T06:22:53.953Z,22.54
2023-03-26T06:26:53.952Z,22.51
2023-03-26T06:30:54.080Z,22.47
2023-03-26T06:34:53.892Z,22.49
2023-03-26T06:38:53.841Z,22.52
2023-03-26T06:43:07.053Z,22.51
2023-03-26T06:46:54.780Z,22.52
2023-03-26T06:50:53.950Z,22.55
2023-03-26T06:54:53.731Z,22.54
2023-03-26T06:58:53.684Z,22.59
2023-03-26T07:02:53.656Z,22.59
2023-03-26T07:06:53.630Z,22.58
2023-03-26T07:10:53.797Z,22.58
2023-03-26T07:14:53.516Z,22.59
2023-03-26T07:18:53.501Z,22.58
2023-03-26T07:22:53.560Z,22.63
2023-03-26T07:26:53.488Z,22.66
2023-03-26T07:30:53.627Z,22.68
2023-03-26T07:34:53.604Z,22.66
2023-03-26T07:38:53.761Z,22.68
2023-03-26T07:42:53.927Z,22.68
2023-03-26T07:46:54.111Z,22.72
2023-03-26T07:50:54.442Z,22.75
2023-03-26T07:54:54.535Z,22.76
2023-03-26T07:58:54.997Z,22.78
2023-03-26T08:02:55.016Z,22.80
2023-03-26T08:06:55.065Z,22.82
2023-03-26T08:10:55.441Z,22.86
2023-03-26T08:14:55.418Z,22.88
2023-03-26T08:18:55.707Z,22.89
2023-03-26T08:22:55.750Z,22.90
2023-03-26T08:26:55.951Z,22.92
2023-03-26T08:30:56.350Z,22.90
2023-03-26T08:34:56.311Z,22.89
2023-03-26T08:38:56.442Z,22.93
2023-03-26T08:42:56.623Z,22.95
2023-03-26T08:46:56.736Z,22.98
2023-03-26T08:50:57.052Z,22.99
2023-03-26T08:54:57.401Z,23.00
2023-03-26T08:58:57.036Z,23.05
2023-03-26T09:02:57.167Z,23.05
2023-03-26T09:06:57.211Z,23.03
2023-03-26T09:10:57.452Z,23.05
2023-03-26T09:14:57.443Z,23.07
2023-03-26T09:18:57.489Z,23.10
2023-03-26T09:22:57.604Z,23.07
2023-03-26T09:26:57.682Z,23.09
2023-03-26T09:30:57.823Z,23.10
2023-03-26T09:34:57.898Z,23.07
2023-03-26T09:38:58.015Z,23.07
2023-03-26T09:42:58.137Z,23.07
2023-03-26T09:46:58.224Z,23.05
2023-03-26T09:50:58.601Z,23.07
2023-03-26T09:54:58.568Z,23.07
2023-03-26T09:58:58.811Z,23.10
2023-03-26T10:02:58.728Z,23.10
2023-03-26T10:06:58.806Z,23.12
2023-03-26T10:10:58.887Z,23.12
2023-03-26T10:14:58.977Z,23.12
2023-03-26T10:18:59.074Z,23.13
2023-03-26T10:22:59.167Z,23.10
2023-03-26T10:27:09.349Z,23.12
2023-03-26T10:31:00.338Z,23.13
2023-03-26T10:34:59.200Z,23.13
2023-03-26T10:38:59.181Z,23.14
2023-03-26T10:42:59.103Z,23.14
2023-03-26T10:46:59.140Z,23.14
2023-03-26T10:50:59.034Z,23.19
2023-03-26T10:54:59.018Z,23.20
2023-03-26T10:58:58.982Z,23.22
2023-03-26T11:02:58.959Z,23.26
2023-03-26T11:06:58.902Z,23.30
2023-03-26T11:10:58.865Z,23.33
2023-03-26T11:14:58.843Z,23.34
2023-03-26T11:18:58.802Z,23.37
2023-03-26T11:22:58.768Z,23.39
2023-03-26T11:27:15.333Z,23.39
2023-03-26T11:31:00.040Z,23.41
2023-03-26T11:34:58.721Z,23.47
2023-03-26T11:38:58.900Z,23.50
2023-03-26T11:42:58.882Z,23.54
2023-03-26T11:46:58.974Z,23.56
2023-03-26T11:50:58.824Z,23.57
2023-03-26T11:54:58.744Z,23.57
2023-03-26T11:58:58.706Z,23.60
2023-03-26T12:02:58.751Z,23.64
2023-03-26T12:06:58.677Z,23.60
2023-03-26T12:10:58.600Z,23.61
2023-03-26T12:14:58.551Z,23.60
2023-03-26T12:18:58.613Z,23.54
2023-03-26T12:22:58.575Z,23.56
2023-03-26T12:26:58.525Z,23.57
2023-03-26T12:30:58.505Z,23.56
2023-03-26T12:34:58.500Z,23.54
2023-03-26T12:39:43.646Z,23.57
2023-03-26T12:44:48.504Z,23.57
2023-03-26T12:47:56.208Z,23.56
2023-03-26T12:50:59.385Z,23.56
2023-03-26T12:54:58.309Z,23.53
2023-03-26T12:58:58.283Z,23.51
2023-03-26T13:02:58.330Z,23.54
2023-03-26T13:07:01.822Z,23.51
2023-03-26T13:10:58.317Z,23.49
2023-03-26T13:14:58.143Z,23.41
2023-03-26T13:18:58.110Z,23.34
2023-03-26T13:22:58.038Z,23.24
2023-03-26T13:26:58.025Z,23.14
2023-03-26T13:30:58.228Z,23.12
2023-03-26T13:34:58.066Z,23.12
2023-03-26T13:38:59.657Z,23.14
2023-03-26T13:42:58.125Z,23.16
2023-03-26T13:46:58.096Z,23.16
2023-03-26T13:50:58.061Z,23.17
2023-03-26T13:54:58.019Z,23.19
2023-03-26T13:58:57.991Z,23.17
2023-03-26T14:02:58.124Z,23.19
2023-03-26T14:06:57.927Z,23.23
2023-03-26T14:10:57.879Z,23.22
2023-03-26T14:14:57.843Z,23.24
2023-03-26T14:18:57.803Z,23.22
2023-03-26T14:22:57.814Z,23.23
2023-03-26T14:26:57.703Z,23.23
2023-03-26T14:30:57.997Z,23.23
2023-03-26T14:34:57.679Z,23.23
2023-03-26T14:38:57.678Z,23.23
2023-03-26T14:42:57.602Z,23.27
2023-03-26T14:46:57.592Z,23.26
2023-03-26T14:50:57.614Z,23.26
2023-03-26T14:54:57.485Z,23.27
2023-03-26T14:58:57.440Z,23.26
2023-03-26T15:02:57.463Z,23.24
2023-03-26T15:06:57.363Z,23.24
2023-03-26T15:10:57.645Z,23.24
2023-03-26T15:14:58.135Z,23.22
2023-03-26T15:18:57.303Z,23.19
2023-03-26T15:22:57.229Z,23.19
2023-03-26T15:26:57.202Z,23.20
2023-03-26T15:30:57.310Z,23.20
2023-03-26T15:34:57.131Z,23.19
2023-03-26T15:38:57.080Z,23.16
2023-03-26T15:42:57.042Z,23.16
2023-03-26T15:46:57.044Z,23.14
2023-03-26T15:50:57.180Z,23.13
2023-03-26T15:54:56.926Z,23.13
2023-03-26T15:58:56.888Z,23.16
2023-03-26T16:02:56.872Z,23.19
2023-03-26T16:06:56.844Z,23.20
2023-03-26T16:10:57.010Z,23.19
2023-03-26T16:14:56.753Z,23.16
2023-03-26T16:18:56.730Z,23.13
2023-03-26T16:22:56.695Z,23.14
2023-03-26T16:26:56.704Z,23.14
2023-03-26T16:30:57.165Z,23.16
2023-03-26T16:34:56.805Z,23.14
2023-03-26T16:38:56.808Z,23.13
2023-03-26T16:42:56.833Z,23.14
2023-03-26T16:46:56.909Z,23.13
2023-03-26T16:50:57.159Z,23.13
2023-03-26T16:54:56.988Z,23.10
2023-03-26T16:58:57.417Z,23.10
2023-03-26T17:02:57.205Z,23.13
2023-03-26T17:06:57.108Z,23.07
2023-03-26T17:10:57.338Z,23.06
2023-03-26T17:14:57.232Z,23.07
2023-03-26T17:18:57.578Z,23.03
2023-03-26T17:22:57.339Z,23.03
2023-03-26T17:26:57.389Z,22.99
2023-03-26T17:30:57.693Z,23.02
2023-03-26T17:34:57.546Z,22.98
2023-03-26T17:38:57.603Z,22.99
2023-03-26T17:42:57.657Z,22.96
2023-03-26T17:46:57.781Z,22.98
2023-03-26T17:50:58.301Z,23.00
2023-03-26T17:54:57.947Z,22.98
2023-03-26T17:58:58.078Z,22.98
2023-03-26T18:02:59.126Z,22.98
2023-03-26T18:06:58.038Z,22.96
2023-03-26T18:10:58.004Z,22.95
2023-03-26T18:14:58.063Z,22.95
2023-03-26T18:18:58.186Z,22.93
2023-03-26T18:22:58.338Z,22.93
2023-03-26T18:26:58.542Z,22.85
2023-03-26T18:30:58.693Z,22.82
2023-03-26T18:34:58.862Z,22.85
2023-03-26T18:38:59.044Z,22.90
2023-03-26T18:42:59.208Z,22.89
2023-03-26T18:46:59.347Z,22.88
2023-03-26T18:50:59.499Z,22.86
2023-03-26T18:55:00.451Z,22.83
2023-03-26T18:58:59.413Z,22.80
2023-03-26T19:02:59.501Z,22.79
2023-03-26T19:06:59.682Z,22.79
2023-03-26T19:10:59.851Z,22.79
2023-03-26T19:15:00.106Z,22.80
2023-03-26T19:19:00.271Z,22.78
2023-03-26T19:23:00.446Z,22.76
2023-03-26T19:27:00.680Z,22.78
2023-03-26T19:31:00.909Z,22.76
2023-03-26T19:35:01.047Z,22.73
2023-03-26T19:39:01.634Z,22.70
2023-03-26T19:43:02.690Z,22.69
2023-03-26T19:47:01.543Z,22.68
2023-03-26T19:51:01.380Z,22.68
2023-03-26T19:55:01.391Z,22.69
2023-03-26T19:59:01.306Z,22.65
2023-03-26T20:03:01.330Z,22.65
2023-03-26T20:07:01.290Z,22.65
2023-03-26T20:11:01.181Z,22.66
2023-03-26T20:15:01.161Z,22.65
2023-03-26T20:19:01.123Z,22.68
2023-03-26T20:23:01.081Z,22.65
2023-03-26T20:27:01.162Z,22.63
2023-03-26T20:31:01.324Z,22.65
2023-03-26T20:35:01.537Z,22.62
2023-03-26T20:39:01.695Z,22.62
2023-03-26T20:43:01.908Z,22.59
2023-03-26T20:47:02.192Z,22.56
2023-03-26T20:51:02.361Z,22.55
2023-03-26T20:55:02.521Z,22.55
2023-03-26T20:59:10.342Z,22.52
2023-03-26T21:03:03.771Z,22.52
2023-03-26T21:07:11.063Z,22.51
2023-03-26T21:11:03.602Z,22.52
2023-03-26T21:15:05.183Z,22.51
2023-03-26T21:19:03.572Z,22.49
2023-03-26T21:23:02.542Z,22.47
2023-03-26T21:27:02.794Z,22.47
2023-03-26T21:31:03.016Z,22.48
2023-03-26T21:35:02.738Z,22.47
2023-03-26T21:39:02.671Z,22.48
2023-03-26T21:43:02.622Z,22.44
2023-03-26T21:47:02.607Z,22.44
2023-03-26T21:51:02.592Z,22.39
2023-03-26T21:55:02.498Z,22.38
2023-03-26T21:59:02.483Z,22.37
2023-03-26T22:03:02.698Z,22.39
2023-03-26T22:07:02.518Z,22.41
2023-03-26T22:11:02.456Z,22.41
2023-03-26T22:15:02.461Z,22.38
2023-03-26T22:19:02.421Z,22.35
2023-03-26T22:23:02.386Z,22.34
2023-03-26T22:27:02.366Z,22.31
2023-03-26T22:31:02.347Z,22.29
2023-03-26T22:35:02.467Z,22.28
2023-03-26T22:39:02.448Z,22.28
2023-03-26T22:43:02.478Z,22.27
2023-03-26T22:47:02.406Z,22.25
2023-03-26T22:51:02.328Z,22.24
2023-03-26T22:55:02.303Z,22.21
2023-03-26T22:59:02.322Z,22.21
2023-03-26T23:03:02.105Z,22.18
2023-03-26T23:07:02.018Z,22.19
2023-03-26T23:11:01.938Z,22.18
2023-03-26T23:15:01.966Z,22.17
2023-03-26T23:19:01.898Z,22.17
2023-03-26T23:23:01.852Z,22.17
2023-03-26T23:27:01.888Z,22.15
2023-03-26T23:31:01.808Z,22.18
2023-03-26T23:35:01.767Z,22.15
2023-03-26T23:39:01.700Z,22.15
2023-03-26T23:43:01.710Z,22.09
2023-03-26T23:47:01.659Z,22.05
2023-03-26T23:51:03.385Z,22.04
2023-03-26T23:55:01.584Z,22.04
2023-03-26T23:59:01.564Z,22.07
